sensor_id;sensor_type;location;lat;lon;timestamp;pressure;altitude;pressure_sealevel;temperature;humidity
58373;BME280;44177;43.356;27.672;2023-04-15T00:00:13;97506.88;;;10.16;74.68
58373;BME280;44177;43.356;27.672;2023-04-15T00:02:40;97523.88;;;10.09;74.82
58373;BME280;44177;43.356;27.672;2023-04-15T00:05:06;97519.66;;;9.92;76.72
58373;BME280;44177;43.356;27.672;2023-04-15T00:07:31;97508.03;;;9.75;78.16
58373;BME280;44177;43.356;27.672;2023-04-15T00:09:57;97514.75;;;9.62;79.17
58373;BME280;44177;43.356;27.672;2023-04-15T00:12:24;97529.38;;;9.54;79.65
58373;BME280;44177;43.356;27.672;2023-04-15T00:14:49;97519.91;;;9.47;80.07
58373;BME280;44177;43.356;27.672;2023-04-15T00:17:15;97510.28;;;9.34;80.75
58373;BME280;44177;43.356;27.672;2023-04-15T00:19:41;97532.81;;;9.51;81.71
58373;BME280;44177;43.356;27.672;2023-04-15T00:22:07;97534.38;;;9.52;81.48
58373;BME280;44177;43.356;27.672;2023-04-15T00:24:33;97542.13;;;9.50;81.65
58373;BME280;44177;43.356;27.672;2023-04-15T00:26:58;97537.09;;;9.52;81.73
58373;BME280;44177;43.356;27.672;2023-04-15T00:29:24;97544.31;;;9.44;82.49
58373;BME280;44177;43.356;27.672;2023-04-15T00:31:50;97542.03;;;9.46;82.65
58373;BME280;44177;43.356;27.672;2023-04-15T00:34:16;97535.34;;;9.43;82.57
58373;BME280;44177;43.356;27.672;2023-04-15T00:36:42;97537.53;;;9.54;82.22
58373;BME280;44177;43.356;27.672;2023-04-15T00:39:08;97539.56;;;9.57;82.26
58373;BME280;44177;43.356;27.672;2023-04-15T00:41:33;97551.81;;;9.67;81.84
58373;BME280;44177;43.356;27.672;2023-04-15T00:44:00;97541.53;;;9.60;81.63
58373;BME280;44177;43.356;27.672;2023-04-15T00:46:27;97548.72;;;9.68;81.66
58373;BME280;44177;43.356;27.672;2023-04-15T00:48:55;97548.03;;;9.71;81.19
58373;BME280;44177;43.356;27.672;2023-04-15T00:51:20;97551.25;;;9.77;80.97
58373;BME280;44177;43.356;27.672;2023-04-15T00:53:46;97562.09;;;9.93;80.42
58373;BME280;44177;43.356;27.672;2023-04-15T00:56:12;97556.44;;;10.02;80.07
58373;BME280;44177;43.356;27.672;2023-04-15T00:58:38;97563.53;;;10.06;79.64
58373;BME280;44177;43.356;27.672;2023-04-15T01:01:04;97557.44;;;10.13;79.08
58373;BME280;44177;43.356;27.672;2023-04-15T01:03:29;97571.50;;;10.15;79.20
58373;BME280;44177;43.356;27.672;2023-04-15T01:05:55;97569.69;;;10.23;79.29
58373;BME280;44177;43.356;27.672;2023-04-15T01:08:28;97564.19;;;10.39;79.04
58373;BME280;44177;43.356;27.672;2023-04-15T01:11:00;97564.16;;;10.58;78.46
58373;BME280;44177;43.356;27.672;2023-04-15T01:13:28;97566.81;;;10.55;77.90
58373;BME280;44177;43.356;27.672;2023-04-15T01:15:55;97563.50;;;10.65;78.07
58373;BME280;44177;43.356;27.672;2023-04-15T01:18:22;97573.75;;;10.72;77.79
58373;BME280;44177;43.356;27.672;2023-04-15T01:20:48;97557.47;;;10.76;78.52
58373;BME280;44177;43.356;27.672;2023-04-15T01:23:14;97566.22;;;10.65;78.20
58373;BME280;44177;43.356;27.672;2023-04-15T01:25:42;97565.47;;;10.65;78.31
58373;BME280;44177;43.356;27.672;2023-04-15T01:28:08;97562.22;;;10.59;77.47
58373;BME280;44177;43.356;27.672;2023-04-15T01:30:34;97547.44;;;10.60;77.61
58373;BME280;44177;43.356;27.672;2023-04-15T01:32:59;97535.25;;;10.54;77.18
58373;BME280;44177;43.356;27.672;2023-04-15T01:35:25;97549.28;;;10.76;77.10
58373;BME280;44177;43.356;27.672;2023-04-15T01:37:52;97547.75;;;10.78;76.69
58373;BME280;44177;43.356;27.672;2023-04-15T01:40:19;97543.13;;;10.82;76.78
58373;BME280;44177;43.356;27.672;2023-04-15T01:42:45;97558.13;;;10.92;76.86
58373;BME280;44177;43.356;27.672;2023-04-15T01:45:11;97559.78;;;10.97;76.63
58373;BME280;44177;43.356;27.672;2023-04-15T01:47:38;97559.84;;;11.00;76.13
58373;BME280;44177;43.356;27.672;2023-04-15T01:50:04;97568.41;;;11.02;76.21
58373;BME280;44177;43.356;27.672;2023-04-15T01:52:30;97558.53;;;10.94;76.57
58373;BME280;44177;43.356;27.672;2023-04-15T01:54:56;97553.50;;;10.96;76.91
58373;BME280;44177;43.356;27.672;2023-04-15T01:57:21;97567.47;;;10.91;77.70
58373;BME280;44177;43.356;27.672;2023-04-15T01:59:47;97561.19;;;10.90;78.80
58373;BME280;44177;43.356;27.672;2023-04-15T02:02:12;97556.63;;;10.95;79.32
58373;BME280;44177;43.356;27.672;2023-04-15T02:04:38;97551.94;;;10.95;79.72
58373;BME280;44177;43.356;27.672;2023-04-15T02:07:03;97555.34;;;10.88;79.89
58373;BME280;44177;43.356;27.672;2023-04-15T02:09:29;97558.25;;;10.99;78.91
58373;BME280;44177;43.356;27.672;2023-04-15T02:11:55;97566.28;;;11.15;77.86
58373;BME280;44177;43.356;27.672;2023-04-15T02:14:20;97555.84;;;11.21;77.72
58373;BME280;44177;43.356;27.672;2023-04-15T02:16:46;97539.91;;;11.23;78.57
58373;BME280;44177;43.356;27.672;2023-04-15T02:19:11;97554.44;;;11.31;80.35
58373;BME280;44177;43.356;27.672;2023-04-15T02:21:38;97540.72;;;11.27;80.26
58373;BME280;44177;43.356;27.672;2023-04-15T02:24:04;97538.75;;;11.24;80.67
58373;BME280;44177;43.356;27.672;2023-04-15T02:26:29;97545.66;;;11.18;80.09
58373;BME280;44177;43.356;27.672;2023-04-15T02:28:57;97538.22;;;11.15;79.54
58373;BME280;44177;43.356;27.672;2023-04-15T02:31:24;97528.69;;;11.05;79.76
58373;BME280;44177;43.356;27.672;2023-04-15T02:33:49;97537.25;;;11.03;80.21
58373;BME280;44177;43.356;27.672;2023-04-15T02:36:15;97538.81;;;11.04;80.00
58373;BME280;44177;43.356;27.672;2023-04-15T02:38:40;97534.03;;;10.98;79.35
58373;BME280;44177;43.356;27.672;2023-04-15T02:41:08;97536.41;;;10.99;79.60
58373;BME280;44177;43.356;27.672;2023-04-15T02:43:34;97532.34;;;11.13;79.35
58373;BME280;44177;43.356;27.672;2023-04-15T02:46:00;97526.38;;;11.07;79.07
58373;BME280;44177;43.356;27.672;2023-04-15T02:48:25;97538.81;;;11.04;79.30
58373;BME280;44177;43.356;27.672;2023-04-15T02:50:51;97527.63;;;10.86;79.73
58373;BME280;44177;43.356;27.672;2023-04-15T02:53:16;97538.81;;;10.81;79.81
58373;BME280;44177;43.356;27.672;2023-04-15T02:55:42;97533.38;;;10.81;79.17
58373;BME280;44177;43.356;27.672;2023-04-15T02:58:07;97546.94;;;10.78;79.71
58373;BME280;44177;43.356;27.672;2023-04-15T03:00:33;97544.22;;;10.78;79.75
58373;BME280;44177;43.356;27.672;2023-04-15T03:03:03;97555.00;;;10.70;80.33
58373;BME280;44177;43.356;27.672;2023-04-15T03:05:29;97550.72;;;10.69;80.57
58373;BME280;44177;43.356;27.672;2023-04-15T03:07:54;97551.94;;;10.72;80.54
58373;BME280;44177;43.356;27.672;2023-04-15T03:10:20;97562.06;;;10.71;80.79
58373;BME280;44177;43.356;27.672;2023-04-15T03:12:46;97563.19;;;10.70;80.28
58373;BME280;44177;43.356;27.672;2023-04-15T03:15:12;97562.47;;;10.73;80.01
58373;BME280;44177;43.356;27.672;2023-04-15T03:17:38;97562.16;;;10.79;79.67
58373;BME280;44177;43.356;27.672;2023-04-15T03:20:04;97556.38;;;10.80;79.65
58373;BME280;44177;43.356;27.672;2023-04-15T03:22:33;97550.13;;;10.80;80.13
58373;BME280;44177;43.356;27.672;2023-04-15T03:24:58;97545.81;;;10.79;79.86
58373;BME280;44177;43.356;27.672;2023-04-15T03:27:24;97558.78;;;10.85;80.66
58373;BME280;44177;43.356;27.672;2023-04-15T03:29:50;97555.69;;;10.87;80.20
58373;BME280;44177;43.356;27.672;2023-04-15T03:32:16;97552.63;;;10.88;80.88
58373;BME280;44177;43.356;27.672;2023-04-15T03:34:41;97554.97;;;10.90;81.43
58373;BME280;44177;43.356;27.672;2023-04-15T03:37:07;97544.50;;;10.92;81.51
58373;BME280;44177;43.356;27.672;2023-04-15T03:39:33;97553.88;;;10.95;81.76
58373;BME280;44177;43.356;27.672;2023-04-15T03:41:58;97553.81;;;10.91;81.51
58373;BME280;44177;43.356;27.672;2023-04-15T03:44:25;97555.91;;;11.01;81.39
58373;BME280;44177;43.356;27.672;2023-04-15T03:46:51;97544.19;;;10.97;81.33
58373;BME280;44177;43.356;27.672;2023-04-15T03:49:16;97543.97;;;11.10;81.14
58373;BME280;44177;43.356;27.672;2023-04-15T03:51:43;97539.38;;;11.14;80.95
58373;BME280;44177;43.356;27.672;2023-04-15T03:54:09;97539.91;;;11.23;80.25
58373;BME280;44177;43.356;27.672;2023-04-15T03:56:34;97552.50;;;11.31;79.88
58373;BME280;44177;43.356;27.672;2023-04-15T03:59:00;97542.03;;;11.37;80.07
58373;BME280;44177;43.356;27.672;2023-04-15T04:01:25;97548.72;;;11.40;79.57
58373;BME280;44177;43.356;27.672;2023-04-15T04:03:51;97543.22;;;11.36;79.27
58373;BME280;44177;43.356;27.672;2023-04-15T04:06:16;97558.28;;;11.53;79.13
58373;BME280;44177;43.356;27.672;2023-04-15T04:08:42;97552.19;;;11.63;78.56
58373;BME280;44177;43.356;27.672;2023-04-15T04:11:07;97541.22;;;11.60;78.49
58373;BME280;44177;43.356;27.672;2023-04-15T04:13:33;97554.63;;;11.72;78.50
58373;BME280;44177;43.356;27.672;2023-04-15T04:15:58;97552.38;;;11.78;78.26
58373;BME280;44177;43.356;27.672;2023-04-15T04:18:24;97545.00;;;11.82;77.65
58373;BME280;44177;43.356;27.672;2023-04-15T04:20:49;97561.09;;;11.87;77.71
58373;BME280;44177;43.356;27.672;2023-04-15T04:23:15;97555.47;;;11.76;78.24
58373;BME280;44177;43.356;27.672;2023-04-15T04:25:40;97548.50;;;11.79;78.52
58373;BME280;44177;43.356;27.672;2023-04-15T04:28:06;97554.06;;;11.86;78.36
58373;BME280;44177;43.356;27.672;2023-04-15T04:30:32;97559.31;;;11.98;78.32
58373;BME280;44177;43.356;27.672;2023-04-15T04:32:57;97550.25;;;11.94;79.43
58373;BME280;44177;43.356;27.672;2023-04-15T04:35:23;97560.03;;;11.95;80.51
58373;BME280;44177;43.356;27.672;2023-04-15T04:37:48;97558.06;;;11.96;80.99
58373;BME280;44177;43.356;27.672;2023-04-15T04:40:15;97553.50;;;12.04;81.28
58373;BME280;44177;43.356;27.672;2023-04-15T04:42:40;97560.16;;;12.03;80.43
58373;BME280;44177;43.356;27.672;2023-04-15T04:45:06;97543.31;;;12.00;80.36
58373;BME280;44177;43.356;27.672;2023-04-15T04:47:31;97547.25;;;12.03;80.96
58373;BME280;44177;43.356;27.672;2023-04-15T04:49:57;97556.31;;;12.07;81.01
58373;BME280;44177;43.356;27.672;2023-04-15T04:52:22;97549.66;;;12.08;80.21
58373;BME280;44177;43.356;27.672;2023-04-15T04:54:48;97559.16;;;12.18;79.96
58373;BME280;44177;43.356;27.672;2023-04-15T04:57:13;97546.88;;;12.05;81.57
58373;BME280;44177;43.356;27.672;2023-04-15T04:59:39;97557.50;;;12.10;80.61
58373;BME280;44177;43.356;27.672;2023-04-15T05:02:04;97551.94;;;12.03;79.95
58373;BME280;44177;43.356;27.672;2023-04-15T05:04:31;97560.59;;;12.08;79.44
58373;BME280;44177;43.356;27.672;2023-04-15T05:06:57;97560.59;;;12.08;79.80
58373;BME280;44177;43.356;27.672;2023-04-15T05:09:23;97587.16;;;12.08;80.01
58373;BME280;44177;43.356;27.672;2023-04-15T05:11:48;97600.31;;;11.98;78.34
58373;BME280;44177;43.356;27.672;2023-04-15T05:14:14;97605.78;;;11.72;74.31
58373;BME280;44177;43.356;27.672;2023-04-15T05:16:40;97590.25;;;11.52;74.84
58373;BME280;44177;43.356;27.672;2023-04-15T05:19:05;97614.78;;;11.49;76.81
58373;BME280;44177;43.356;27.672;2023-04-15T05:21:31;97608.91;;;11.47;76.14
58373;BME280;44177;43.356;27.672;2023-04-15T05:23:57;97605.59;;;11.34;78.16
58373;BME280;44177;43.356;27.672;2023-04-15T05:26:22;97606.09;;;11.40;78.98
58373;BME280;44177;43.356;27.672;2023-04-15T05:28:48;97615.81;;;11.41;79.23
58373;BME280;44177;43.356;27.672;2023-04-15T05:31:14;97600.09;;;11.30;80.15
58373;BME280;44177;43.356;27.672;2023-04-15T05:33:40;97610.31;;;11.37;81.38
58373;BME280;44177;43.356;27.672;2023-04-15T05:36:06;97613.31;;;11.28;82.44
58373;BME280;44177;43.356;27.672;2023-04-15T05:38:31;97617.13;;;11.24;83.24
58373;BME280;44177;43.356;27.672;2023-04-15T05:40:57;97615.00;;;11.13;84.10
58373;BME280;44177;43.356;27.672;2023-04-15T05:43:23;97596.56;;;11.06;84.39
58373;BME280;44177;43.356;27.672;2023-04-15T05:45:48;97608.28;;;11.07;84.58
58373;BME280;44177;43.356;27.672;2023-04-15T05:48:14;97638.34;;;11.11;85.78
58373;BME280;44177;43.356;27.672;2023-04-15T05:50:40;97625.34;;;11.00;86.72
58373;BME280;44177;43.356;27.672;2023-04-15T05:53:07;97637.41;;;10.99;86.94
58373;BME280;44177;43.356;27.672;2023-04-15T05:55:32;97639.31;;;10.99;87.39
58373;BME280;44177;43.356;27.672;2023-04-15T05:57:58;97635.38;;;10.96;87.99
58373;BME280;44177;43.356;27.672;2023-04-15T06:00:23;97636.59;;;10.99;89.31
58373;BME280;44177;43.356;27.672;2023-04-15T06:02:49;97652.19;;;10.98;89.44
58373;BME280;44177;43.356;27.672;2023-04-15T06:05:14;97653.34;;;10.97;91.05
58373;BME280;44177;43.356;27.672;2023-04-15T06:07:40;97653.34;;;10.97;91.15
58373;BME280;44177;43.356;27.672;2023-04-15T06:10:06;97642.41;;;10.97;91.54
58373;BME280;44177;43.356;27.672;2023-04-15T06:12:32;97654.19;;;11.01;91.86
58373;BME280;44177;43.356;27.672;2023-04-15T06:14:57;97657.66;;;10.98;91.58
58373;BME280;44177;43.356;27.672;2023-04-15T06:17:23;97664.38;;;11.04;91.92
58373;BME280;44177;43.356;27.672;2023-04-15T06:19:48;97654.78;;;11.14;91.91
58373;BME280;44177;43.356;27.672;2023-04-15T06:22:20;97652.25;;;11.25;92.57
58373;BME280;44177;43.356;27.672;2023-04-15T06:24:47;97650.81;;;11.31;90.90
58373;BME280;44177;43.356;27.672;2023-04-15T06:27:13;97653.66;;;11.38;90.37
58373;BME280;44177;43.356;27.672;2023-04-15T06:29:39;97653.09;;;11.29;89.98
58373;BME280;44177;43.356;27.672;2023-04-15T06:32:04;97626.63;;;11.33;90.86
58373;BME280;44177;43.356;27.672;2023-04-15T06:34:30;97650.19;;;11.42;90.80
58373;BME280;44177;43.356;27.672;2023-04-15T06:36:55;97648.59;;;11.41;89.73
58373;BME280;44177;43.356;27.672;2023-04-15T06:39:21;97641.59;;;11.40;89.07
58373;BME280;44177;43.356;27.672;2023-04-15T06:41:47;97646.28;;;11.43;89.54
58373;BME280;44177;43.356;27.672;2023-04-15T06:44:12;97649.16;;;11.50;89.03
58373;BME280;44177;43.356;27.672;2023-04-15T06:46:38;97647.31;;;11.58;89.88
58373;BME280;44177;43.356;27.672;2023-04-15T06:49:04;97646.75;;;11.72;88.71
58373;BME280;44177;43.356;27.672;2023-04-15T06:51:29;97637.09;;;11.78;88.08
58373;BME280;44177;43.356;27.672;2023-04-15T06:53:55;97632.38;;;12.02;87.94
58373;BME280;44177;43.356;27.672;2023-04-15T06:56:21;97629.31;;;12.07;86.37
58373;BME280;44177;43.356;27.672;2023-04-15T06:58:47;97638.81;;;12.16;87.72
58373;BME280;44177;43.356;27.672;2023-04-15T07:01:13;97637.22;;;12.15;85.46
58373;BME280;44177;43.356;27.672;2023-04-15T07:03:38;97641.09;;;12.11;85.92
58373;BME280;44177;43.356;27.672;2023-04-15T07:06:04;97652.34;;;12.06;86.96
58373;BME280;44177;43.356;27.672;2023-04-15T07:08:32;97654.50;;;11.96;87.45
58373;BME280;44177;43.356;27.672;2023-04-15T07:10:59;97674.34;;;11.90;88.62
58373;BME280;44177;43.356;27.672;2023-04-15T07:13:24;97668.50;;;11.91;89.44
58373;BME280;44177;43.356;27.672;2023-04-15T07:15:50;97679.13;;;11.96;88.42
58373;BME280;44177;43.356;27.672;2023-04-15T07:18:16;97667.41;;;11.96;89.06
58373;BME280;44177;43.356;27.672;2023-04-15T07:20:41;97668.13;;;11.93;85.70
58373;BME280;44177;43.356;27.672;2023-04-15T07:23:07;97675.25;;;11.97;86.13
58373;BME280;44177;43.356;27.672;2023-04-15T07:25:33;97680.06;;;12.04;85.00
58373;BME280;44177;43.356;27.672;2023-04-15T07:27:59;97683.09;;;11.99;84.85
58373;BME280;44177;43.356;27.672;2023-04-15T07:30:24;97688.56;;;11.99;84.40
58373;BME280;44177;43.356;27.672;2023-04-15T07:32:50;97681.97;;;12.04;86.56
58373;BME280;44177;43.356;27.672;2023-04-15T07:35:15;97689.25;;;12.19;85.29
58373;BME280;44177;43.356;27.672;2023-04-15T07:37:41;97684.59;;;12.23;83.95
58373;BME280;44177;43.356;27.672;2023-04-15T07:40:08;97685.03;;;12.25;84.29
58373;BME280;44177;43.356;27.672;2023-04-15T07:42:34;97703.25;;;12.44;84.51
58373;BME280;44177;43.356;27.672;2023-04-15T07:44:59;97698.56;;;12.45;83.68
58373;BME280;44177;43.356;27.672;2023-04-15T07:47:25;97680.56;;;12.44;81.61
58373;BME280;44177;43.356;27.672;2023-04-15T07:49:51;97682.75;;;12.61;80.42
58373;BME280;44177;43.356;27.672;2023-04-15T07:52:17;97696.59;;;12.76;79.52
58373;BME280;44177;43.356;27.672;2023-04-15T07:54:44;97699.00;;;12.81;78.51
58373;BME280;44177;43.356;27.672;2023-04-15T07:57:09;97710.63;;;12.71;78.46
58373;BME280;44177;43.356;27.672;2023-04-15T07:59:35;97705.06;;;12.63;80.53
58373;BME280;44177;43.356;27.672;2023-04-15T08:02:01;97700.13;;;12.46;78.08
58373;BME280;44177;43.356;27.672;2023-04-15T08:04:26;97699.72;;;12.44;80.29
58373;BME280;44177;43.356;27.672;2023-04-15T08:06:52;97705.53;;;12.39;79.66
58373;BME280;44177;43.356;27.672;2023-04-15T08:09:19;97684.75;;;12.34;80.27
58373;BME280;44177;43.356;27.672;2023-04-15T08:11:47;97700.47;;;12.41;80.37
58373;BME280;44177;43.356;27.672;2023-04-15T08:14:13;97704.13;;;12.52;78.87
58373;BME280;44177;43.356;27.672;2023-04-15T08:16:39;97696.47;;;12.65;78.70
58373;BME280;44177;43.356;27.672;2023-04-15T08:19:04;97700.47;;;12.75;78.74
58373;BME280;44177;43.356;27.672;2023-04-15T08:21:30;97699.66;;;12.71;76.13
58373;BME280;44177;43.356;27.672;2023-04-15T08:23:55;97703.81;;;12.91;75.82
58373;BME280;44177;43.356;27.672;2023-04-15T08:26:21;97708.63;;;13.02;74.75
58373;BME280;44177;43.356;27.672;2023-04-15T08:28:47;97707.16;;;13.11;74.93
58373;BME280;44177;43.356;27.672;2023-04-15T08:31:14;97714.25;;;13.16;73.82
58373;BME280;44177;43.356;27.672;2023-04-15T08:33:40;97717.38;;;13.15;74.88
58373;BME280;44177;43.356;27.672;2023-04-15T08:36:06;97704.22;;;13.31;75.62
58373;BME280;44177;43.356;27.672;2023-04-15T08:38:32;97714.22;;;13.50;73.58
58373;BME280;44177;43.356;27.672;2023-04-15T08:40:59;97721.75;;;13.61;73.49
58373;BME280;44177;43.356;27.672;2023-04-15T08:43:27;97707.94;;;13.50;72.85
58373;BME280;44177;43.356;27.672;2023-04-15T08:45:57;97706.75;;;13.47;71.72
58373;BME280;44177;43.356;27.672;2023-04-15T08:48:27;97721.38;;;13.62;72.96
58373;BME280;44177;43.356;27.672;2023-04-15T08:50:53;97710.09;;;13.74;70.36
58373;BME280;44177;43.356;27.672;2023-04-15T08:53:19;97716.34;;;13.71;71.01
58373;BME280;44177;43.356;27.672;2023-04-15T08:55:50;97717.97;;;13.76;72.14
58373;BME280;44177;43.356;27.672;2023-04-15T08:58:16;97730.88;;;13.76;69.43
58373;BME280;44177;43.356;27.672;2023-04-15T09:00:43;97742.50;;;13.62;68.10
58373;BME280;44177;43.356;27.672;2023-04-15T09:03:08;97735.78;;;13.55;71.24
58373;BME280;44177;43.356;27.672;2023-04-15T09:05:35;97736.28;;;13.68;71.31
58373;BME280;44177;43.356;27.672;2023-04-15T09:08:01;97736.75;;;13.74;66.94
58373;BME280;44177;43.356;27.672;2023-04-15T09:10:28;97740.56;;;13.66;67.33
58373;BME280;44177;43.356;27.672;2023-04-15T09:12:54;97744.53;;;13.72;68.31
58373;BME280;44177;43.356;27.672;2023-04-15T09:15:20;97747.13;;;13.99;69.24
58373;BME280;44177;43.356;27.672;2023-04-15T09:17:45;97726.81;;;14.07;69.86
58373;BME280;44177;43.356;27.672;2023-04-15T09:20:12;97732.41;;;14.25;68.31
58373;BME280;44177;43.356;27.672;2023-04-15T09:22:39;97718.78;;;14.40;69.94
58373;BME280;44177;43.356;27.672;2023-04-15T09:30:15;97728.31;;;14.64;69.49
58373;BME280;44177;43.356;27.672;2023-04-15T09:35:16;97709.97;;;14.82;67.66
58373;BME280;44177;43.356;27.672;2023-04-15T09:37:42;97727.22;;;14.79;67.77
58373;BME280;44177;43.356;27.672;2023-04-15T09:40:07;97728.88;;;14.98;68.14
58373;BME280;44177;43.356;27.672;2023-04-15T09:42:34;97733.22;;;15.10;68.46
58373;BME280;44177;43.356;27.672;2023-04-15T09:45:10;97734.81;;;15.22;66.76
58373;BME280;44177;43.356;27.672;2023-04-15T09:47:36;97735.22;;;15.31;65.94
58373;BME280;44177;43.356;27.672;2023-04-15T09:50:01;97726.63;;;15.47;66.54
58373;BME280;44177;43.356;27.672;2023-04-15T09:52:28;97738.41;;;15.52;65.54
58373;BME280;44177;43.356;27.672;2023-04-15T09:54:54;97731.31;;;15.43;64.70
58373;BME280;44177;43.356;27.672;2023-04-15T09:57:23;97731.72;;;15.53;65.74
58373;BME280;44177;43.356;27.672;2023-04-15T09:59:49;97726.63;;;15.55;66.35
58373;BME280;44177;43.356;27.672;2023-04-15T10:02:17;97725.81;;;15.47;66.27
58373;BME280;44177;43.356;27.672;2023-04-15T10:04:43;97729.78;;;15.53;65.98
58373;BME280;44177;43.356;27.672;2023-04-15T10:07:11;97735.28;;;15.68;65.04
58373;BME280;44177;43.356;27.672;2023-04-15T10:09:38;97726.63;;;15.69;64.35
58373;BME280;44177;43.356;27.672;2023-04-15T10:12:04;97721.16;;;15.91;64.66
58373;BME280;44177;43.356;27.672;2023-04-15T10:14:37;97711.69;;;16.28;63.62
58373;BME280;44177;43.356;27.672;2023-04-15T10:17:04;97699.38;;;16.65;62.00
58373;BME280;44177;43.356;27.672;2023-04-15T10:19:33;97711.47;;;16.86;61.50
58373;BME280;44177;43.356;27.672;2023-04-15T10:22:01;97713.66;;;17.31;57.00
58373;BME280;44177;43.356;27.672;2023-04-15T10:24:27;97708.28;;;17.65;57.79
58373;BME280;44177;43.356;27.672;2023-04-15T10:26:53;97698.44;;;18.52;54.08
58373;BME280;44177;43.356;27.672;2023-04-15T10:29:19;97701.28;;;18.79;53.52
58373;BME280;44177;43.356;27.672;2023-04-15T10:31:45;97699.78;;;19.33;51.76
58373;BME280;44177;43.356;27.672;2023-04-15T10:34:12;97712.53;;;19.27;51.23
58373;BME280;44177;43.356;27.672;2023-04-15T10:36:38;97705.88;;;18.89;52.49
58373;BME280;44177;43.356;27.672;2023-04-15T10:42:18;97713.44;;;18.85;53.55
58373;BME280;44177;43.356;27.672;2023-04-15T10:44:48;97718.03;;;18.65;51.69
58373;BME280;44177;43.356;27.672;2023-04-15T10:47:15;97706.88;;;19.34;50.39
58373;BME280;44177;43.356;27.672;2023-04-15T10:49:56;97701.69;;;20.14;50.36
58373;BME280;44177;43.356;27.672;2023-04-15T10:52:27;97703.75;;;20.50;49.04
58373;BME280;44177;43.356;27.672;2023-04-15T10:55:11;97704.53;;;20.31;48.30
58373;BME280;44177;43.356;27.672;2023-04-15T10:57:39;97703.28;;;20.96;46.62
58373;BME280;44177;43.356;27.672;2023-04-15T11:05:12;97695.78;;;21.83;43.47
58373;BME280;44177;43.356;27.672;2023-04-15T11:12:43;97704.75;;;22.36;40.60
58373;BME280;44177;43.356;27.672;2023-04-15T11:15:29;97704.50;;;23.02;40.28
58373;BME280;44177;43.356;27.672;2023-04-15T11:17:58;97697.13;;;22.83;42.07
58373;BME280;44177;43.356;27.672;2023-04-15T11:20:25;97708.91;;;22.87;40.64
58373;BME280;44177;43.356;27.672;2023-04-15T11:22:52;97696.44;;;23.21;42.36
58373;BME280;44177;43.356;27.672;2023-04-15T11:25:25;97689.53;;;23.52;40.92
58373;BME280;44177;43.356;27.672;2023-04-15T11:27:52;97695.97;;;23.74;39.34
58373;BME280;44177;43.356;27.672;2023-04-15T11:30:22;97704.59;;;24.02;38.40
58373;BME280;44177;43.356;27.672;2023-04-15T11:32:49;97701.97;;;24.34;37.96
58373;BME280;44177;43.356;27.672;2023-04-15T11:35:15;97703.84;;;24.02;38.50
58373;BME280;44177;43.356;27.672;2023-04-15T11:37:42;97699.63;;;23.58;38.48
58373;BME280;44177;43.356;27.672;2023-04-15T11:40:08;97710.31;;;23.73;37.71
58373;BME280;44177;43.356;27.672;2023-04-15T11:42:34;97705.88;;;23.49;38.34
58373;BME280;44177;43.356;27.672;2023-04-15T11:45:10;97699.84;;;24.03;37.29
58373;BME280;44177;43.356;27.672;2023-04-15T11:47:37;97689.41;;;24.16;37.21
58373;BME280;44177;43.356;27.672;2023-04-15T11:50:16;97695.38;;;23.92;38.61
58373;BME280;44177;43.356;27.672;2023-04-15T11:52:55;97699.16;;;23.99;37.86
58373;BME280;44177;43.356;27.672;2023-04-15T11:55:22;97704.72;;;23.86;37.62
58373;BME280;44177;43.356;27.672;2023-04-15T11:58:11;97702.22;;;24.26;37.10
58373;BME280;44177;43.356;27.672;2023-04-15T12:00:36;97694.16;;;24.28;37.76
58373;BME280;44177;43.356;27.672;2023-04-15T12:03:17;97705.50;;;24.34;37.56
58373;BME280;44177;43.356;27.672;2023-04-15T12:11:13;97698.88;;;24.76;37.13
58373;BME280;44177;43.356;27.672;2023-04-15T12:13:43;97684.09;;;24.88;35.08
58373;BME280;44177;43.356;27.672;2023-04-15T12:16:08;97682.34;;;25.45;34.28
58373;BME280;44177;43.356;27.672;2023-04-15T12:18:37;97699.38;;;24.62;34.31
58373;BME280;44177;43.356;27.672;2023-04-15T12:21:09;97678.78;;;24.81;34.39
58373;BME280;44177;43.356;27.672;2023-04-15T12:23:39;97694.28;;;25.14;34.93
58373;BME280;44177;43.356;27.672;2023-04-15T12:26:11;97685.78;;;25.49;35.52
58373;BME280;44177;43.356;27.672;2023-04-15T12:28:39;97687.31;;;24.87;31.65
58373;BME280;44177;43.356;27.672;2023-04-15T12:31:07;97689.34;;;24.86;32.24
58373;BME280;44177;43.356;27.672;2023-04-15T12:33:33;97693.03;;;24.83;34.74
58373;BME280;44177;43.356;27.672;2023-04-15T12:35:59;97699.44;;;24.93;32.87
58373;BME280;44177;43.356;27.672;2023-04-15T12:38:24;97699.84;;;24.03;34.57
58373;BME280;44177;43.356;27.672;2023-04-15T12:40:50;97707.28;;;24.06;34.43
58373;BME280;44177;43.356;27.672;2023-04-15T12:43:16;97700.84;;;23.96;36.02
58373;BME280;44177;43.356;27.672;2023-04-15T12:45:41;97696.72;;;24.01;32.85
58373;BME280;44177;43.356;27.672;2023-04-15T12:48:07;97694.69;;;23.88;35.64
58373;BME280;44177;43.356;27.672;2023-04-15T12:50:34;97703.09;;;24.23;32.25
58373;BME280;44177;43.356;27.672;2023-04-15T12:52:59;97691.13;;;24.36;32.55
58373;BME280;44177;43.356;27.672;2023-04-15T12:55:25;97695.28;;;24.53;32.19
58373;BME280;44177;43.356;27.672;2023-04-15T12:57:51;97694.78;;;24.68;32.93
58373;BME280;44177;43.356;27.672;2023-04-15T13:00:16;97689.78;;;24.85;33.83
58373;BME280;44177;43.356;27.672;2023-04-15T13:02:43;97692.72;;;25.13;32.25
58373;BME280;44177;43.356;27.672;2023-04-15T13:05:09;97689.94;;;24.81;32.52
58373;BME280;44177;43.356;27.672;2023-04-15T13:07:34;97678.00;;;25.44;31.18
58373;BME280;44177;43.356;27.672;2023-04-15T13:10:00;97674.88;;;25.42;30.18
58373;BME280;44177;43.356;27.672;2023-04-15T13:12:26;97682.44;;;25.82;29.15